Time;durP1;ratioP1;P1;durP2;ratioP2;P2;SDS_P1;SDS_P2;PMS_P1;PMS_P2;Temp;Humidity;BMP_temperature;BMP_pressure;BME280_temperature;BME280_humidity;BME280_pressure;Samples;Min_cycle;Max_cycle;Signal;HPM_P1;HPM_P2
2022/01/30 00:00:24;;;;;;;;;13.00;8.50;;;;;9.34;64.59;102919.81;5092420;27;45698;-75
2022/01/30 00:02:51;;;;;;;;;19.25;10.75;;;;;9.45;64.55;102948.97;5077079;27;45453;-76
2022/01/30 00:05:17;;;;;;;;;7.00;5.25;;;;;9.36;65.56;102947.16;5093970;27;45385;-76
2022/01/30 00:07:42;;;;;;;;;6.50;4.00;;;;;9.38;64.87;102947.13;5076535;27;48209;-75
2022/01/30 00:10:11;;;;;;;;;5.75;2.50;;;;;8.87;63.54;102868.44;5095533;27;45417;-76
2022/01/30 00:12:50;;;;;;;;;5.25;3.75;;;;;9.28;65.28;102944.44;5091970;27;45506;-76
2022/01/30 00:15:17;;;;;;;;;7.00;3.25;;;;;9.21;64.21;102937.38;5075661;27;45504;-75
2022/01/30 00:17:49;;;;;;;;;9.75;6.00;;;;;9.26;64.04;102940.03;5094054;27;45401;-76
2022/01/30 00:20:21;;;;;;;;;12.25;4.50;;;;;9.28;64.54;102946.22;5093823;27;45366;-76
2022/01/30 00:23:09;;;;;;;;;4.50;3.50;;;;;9.33;65.05;102955.06;5090945;27;45331;-76
2022/01/30 00:25:44;;;;;;;;;6.50;2.50;;;;;9.18;65.01;102926.78;5093861;27;45653;-76
2022/01/30 00:28:12;;;;;;;;;8.25;2.25;;;;;8.84;65.02;102879.00;5084759;27;46294;-76
2022/01/30 00:30:37;;;;;;;;;14.00;4.00;;;;;9.23;64.21;102948.81;5073353;27;46134;-76
2022/01/30 00:33:02;;;;;;;;;4.00;2.25;;;;;8.99;65.19;102923.13;5093112;27;45426;-76
2022/01/30 00:35:29;;;;;;;;;8.50;5.00;;;;;9.20;64.22;102962.00;5071900;27;45537;-76
2022/01/30 00:37:55;;;;;;;;;5.50;4.50;;;;;9.21;64.77;102957.63;5093205;27;45573;-76
2022/01/30 00:40:20;;;;;;;;;12.00;6.25;;;;;8.96;64.39;102931.00;5077006;27;45492;-76
2022/01/30 00:42:46;;;;;;;;;14.25;7.25;;;;;9.00;64.37;102930.19;5092738;27;45582;-76
2022/01/30 00:45:11;;;;;;;;;15.50;9.25;;;;;9.15;64.54;102949.63;5093754;27;45362;-76
2022/01/30 00:47:36;;;;;;;;;8.75;6.25;;;;;9.07;65.08;102941.66;5093030;27;46316;-76
2022/01/30 00:50:02;;;;;;;;;13.00;10.75;;;;;9.00;64.82;102938.09;5093446;27;45509;-76
2022/01/30 00:52:28;;;;;;;;;14.00;10.00;;;;;9.09;64.46;102954.00;5094458;27;45346;-76
2022/01/30 00:54:53;;;;;;;;;9.25;7.00;;;;;9.06;64.85;102954.00;5095010;27;45519;-76
2022/01/30 00:57:18;;;;;;;;;10.75;5.25;;;;;8.69;65.39;102899.13;5093386;27;45450;-76
2022/01/30 00:59:44;;;;;;;;;6.00;4.50;;;;;9.04;65.88;102961.00;5093333;27;45503;-75
2022/01/30 01:02:09;;;;;;;;;7.00;5.00;;;;;8.96;65.47;102944.22;5093285;27;45555;-76
2022/01/30 01:04:34;;;;;;;;;3.75;3.00;;;;;9.00;66.15;102947.75;5093025;27;45495;-75
2022/01/30 01:07:00;;;;;;;;;8.25;4.25;;;;;8.68;66.21;102906.16;5095049;27;45507;-75
2022/01/30 01:09:34;;;;;;;;;17.25;8.25;;;;;8.51;66.03;102884.03;5076149;27;45396;-76
2022/01/30 01:25:38;;;;;;;;;11.50;7.50;;;;;8.72;66.69;102954.59;5093743;27;45542;-75
2022/01/30 01:28:04;;;;;;;;;13.75;4.00;;;;;8.73;66.26;102959.88;5094313;27;46142;-75
2022/01/30 01:30:29;;;;;;;;;13.75;8.75;;;;;8.55;66.41;102936.84;5092936;27;45612;-75
2022/01/30 01:32:54;;;;;;;;;12.25;5.00;;;;;8.71;66.04;102963.41;5092660;27;45386;-75
2022/01/30 01:35:20;;;;;;;;;5.75;3.00;;;;;8.71;66.65;102972.19;5092979;27;45577;-75
2022/01/30 01:37:52;;;;;;;;;6.75;1.25;;;;;8.56;66.38;102941.25;5092945;27;45251;-75
2022/01/30 01:40:17;;;;;;;;;10.00;3.50;;;;;8.63;65.95;102958.91;5090978;27;45504;-75
2022/01/30 01:42:44;;;;;;;;;4.25;2.75;;;;;8.66;65.38;102975.66;5093228;27;45759;-75
2022/01/30 01:45:09;;;;;;;;;8.25;3.00;;;;;8.62;65.82;102991.47;5093110;27;45670;-75
2022/01/30 01:47:35;;;;;;;;;4.25;2.25;;;;;8.53;65.48;102979.91;5075482;27;46666;-75
2022/01/30 01:50:00;;;;;;;;;3.75;2.00;;;;;8.45;65.84;102966.66;5095399;27;45473;-75
2022/01/30 01:52:26;;;;;;;;;5.50;3.00;;;;;8.41;65.73;102963.13;5097878;27;45450;-75
2022/01/30 01:54:56;;;;;;;;;8.75;5.00;;;;;8.48;65.69;102973.72;5097477;27;45437;-75
2022/01/30 01:57:24;;;;;;;;;17.25;10.00;;;;;8.38;65.39;102959.50;5079244;27;46998;-75
2022/01/30 01:59:49;;;;;;;;;7.00;3.25;;;;;8.50;65.57;102990.44;5096255;27;45393;-75
2022/01/30 02:02:15;;;;;;;;;6.25;3.25;;;;;8.58;66.28;103001.97;5095227;27;45652;-75
2022/01/30 02:04:42;;;;;;;;;6.50;4.25;;;;;8.57;66.54;103000.22;5096091;27;45583;-75
2022/01/30 02:09:52;;;;;;;;;8.25;3.00;;;;;8.48;66.38;102989.56;5097097;27;45477;-75
2022/01/30 02:12:23;;;;;;;;;8.00;3.00;;;;;8.23;66.95;102961.97;5095593;27;45519;-75
2022/01/30 02:25:38;;;;;;;;;37.50;26.50;;;;;8.32;65.43;103006.94;5094395;27;45533;-75
2022/01/30 02:28:09;;;;;;;;;25.50;16.00;;;;;8.29;66.10;103005.13;5095569;27;45548;-75
2022/01/30 02:30:38;;;;;;;;;41.00;24.75;;;;;8.34;66.67;103011.34;5078205;27;45582;-75
2022/01/30 02:33:03;;;;;;;;;17.75;10.00;;;;;8.27;66.81;102998.09;5095298;27;45440;-75
2022/01/30 02:35:29;;;;;;;;;18.00;10.00;;;;;8.32;67.17;103004.28;5078521;27;45524;-75
2022/01/30 02:37:56;;;;;;;;;11.25;8.00;;;;;8.31;66.99;103008.69;5095585;27;45714;-75
2022/01/30 02:40:22;;;;;;;;;10.25;7.50;;;;;8.29;66.35;103013.03;5096673;27;45444;-75
2022/01/30 02:42:51;;;;;;;;;14.25;10.25;;;;;8.22;66.48;103005.94;5096406;27;45322;-75
2022/01/30 02:45:18;;;;;;;;;13.00;5.25;;;;;8.26;66.84;103009.50;5095599;27;45418;-75
2022/01/30 02:48:13;;;;;;;;;7.00;3.00;;;;;8.12;66.28;102997.03;5076266;27;45517;-74
2022/01/30 02:53:13;;;;;;;;;9.00;3.50;;;;;8.05;66.99;102978.47;5095738;27;45591;-75
2022/01/30 02:55:39;;;;;;;;;2.00;2.00;;;;;8.00;66.89;102974.91;5076363;27;45669;-75
2022/01/30 02:58:04;;;;;;;;;6.75;3.00;;;;;8.15;67.25;103002.34;5097395;27;45908;-75
2022/01/30 03:00:29;;;;;;;;;7.25;3.25;;;;;8.14;67.30;103003.19;5078019;27;45739;-75
2022/01/30 03:02:55;;;;;;;;;5.75;4.00;;;;;7.98;67.30;102974.91;5095251;27;45246;-75
2022/01/30 03:05:20;;;;;;;;;10.50;3.00;;;;;8.05;67.28;102987.28;5094938;27;45342;-74
2022/01/30 03:07:46;;;;;;;;;7.50;2.75;;;;;8.08;67.52;102986.44;5094861;27;45259;-75
2022/01/30 03:10:11;;;;;;;;;3.75;3.75;;;;;7.93;67.19;102974.81;5097619;27;45323;-75
2022/01/30 03:12:37;;;;;;;;;6.00;4.00;;;;;8.05;67.38;103005.72;5095108;27;45588;-75
2022/01/30 03:15:05;;;;;;;;;8.75;2.50;;;;;7.91;66.81;102980.94;5093322;27;45354;-75
2022/01/30 03:17:30;;;;;;;;;4.75;3.00;;;;;7.99;68.05;102984.56;5094679;27;45296;-75
2022/01/30 03:19:55;;;;;;;;;5.25;1.75;;;;;8.02;67.97;102996.91;5095075;27;45367;-75
2022/01/30 03:22:21;;;;;;;;;7.75;3.50;;;;;8.01;67.57;103003.06;5078018;27;45327;-75
2022/01/30 03:24:46;;;;;;;;;4.50;2.00;;;;;7.90;67.61;102995.00;5094493;27;45554;-75
2022/01/30 03:27:13;;;;;;;;;7.75;2.00;;;;;7.92;67.53;103003.81;5094595;27;45469;-75
2022/01/30 03:29:40;;;;;;;;;5.00;4.75;;;;;7.96;67.87;103014.41;5094403;27;45675;-74
2022/01/30 03:32:06;;;;;;;;;3.00;3.00;;;;;7.95;67.63;103010.00;5095093;27;45484;-75
2022/01/30 03:34:31;;;;;;;;;11.00;3.00;;;;;7.84;67.20;102993.16;5094608;27;45344;-75
2022/01/30 03:36:57;;;;;;;;;5.50;3.25;;;;;7.71;67.89;102963.13;5096444;27;46579;-75
2022/01/30 03:39:22;;;;;;;;;8.50;2.00;;;;;7.66;66.83;102961.31;5094546;27;46075;-74
2022/01/30 03:41:48;;;;;;;;;7.25;3.00;;;;;7.70;66.94;102969.25;5094829;27;45445;-75
2022/01/30 03:44:13;;;;;;;;;7.00;2.50;;;;;7.73;67.86;102979.88;5094207;27;45342;-75
2022/01/30 03:46:39;;;;;;;;;8.00;4.00;;;;;7.83;67.73;103001.94;5094897;27;45247;-75
2022/01/30 03:49:04;;;;;;;;;5.00;3.50;;;;;7.66;67.50;102970.09;5096848;27;45335;-75
2022/01/30 03:51:30;;;;;;;;;7.25;3.00;;;;;7.80;68.14;103003.66;5094673;27;45774;-75
2022/01/30 03:53:55;;;;;;;;;5.00;4.25;;;;;7.83;67.59;103003.72;5092555;27;45575;-75
2022/01/30 03:56:20;;;;;;;;;3.75;2.75;;;;;7.79;68.06;103000.13;5094121;27;46184;-75
2022/01/30 03:58:46;;;;;;;;;6.00;3.00;;;;;7.22;67.26;102904.50;5094207;27;45434;-75
2022/01/30 04:01:11;;;;;;;;;9.75;3.75;;;;;7.74;67.65;102992.16;5077880;27;45846;-75
2022/01/30 04:03:36;;;;;;;;;8.25;4.00;;;;;7.70;68.43;102998.25;5094134;27;45551;-75
2022/01/30 04:06:04;;;;;;;;;8.25;4.50;;;;;7.47;68.20;102957.50;5077138;27;46237;-75
2022/01/30 04:08:30;;;;;;;;;7.75;3.00;;;;;7.67;68.19;102992.06;5094181;27;45659;-75
2022/01/30 04:10:55;;;;;;;;;8.75;3.00;;;;;7.73;68.37;103014.13;5094424;27;45692;-75
2022/01/30 04:13:21;;;;;;;;;2.50;1.00;;;;;7.69;68.61;103006.16;5094863;27;45423;-76
2022/01/30 04:15:46;;;;;;;;;8.00;3.00;;;;;7.69;68.56;103003.50;5094531;27;46925;-75
2022/01/30 04:18:12;;;;;;;;;5.75;3.00;;;;;7.40;68.59;102964.44;5093965;27;45294;-75
2022/01/30 04:20:37;;;;;;;;;5.25;3.75;;;;;7.67;68.26;103011.38;5093975;27;45514;-75
2022/01/30 04:23:03;;;;;;;;;7.00;2.00;;;;;7.71;67.57;103023.75;5093901;27;45223;-75
2022/01/30 04:25:28;;;;;;;;;3.50;2.75;;;;;7.71;68.57;103020.25;5094902;27;46115;-75
2022/01/30 04:27:54;;;;;;;;;6.50;2.50;;;;;7.71;68.55;103026.41;5076777;27;45489;-75
2022/01/30 04:30:21;;;;;;;;;10.00;2.00;;;;;7.47;68.10;102987.41;5076934;27;45482;-75
2022/01/30 04:32:46;;;;;;;;;8.00;5.25;;;;;7.70;68.35;103032.50;5093263;27;45465;-75
2022/01/30 04:35:20;;;;;;;;;4.25;2.75;;;;;7.39;68.47;102973.22;5092423;27;45923;-75
2022/01/30 04:54:49;;;;;;;;;18.25;9.50;;;;;7.55;67.91;103048.09;5093576;27;45507;-76
2022/01/30 04:59:40;;;;;;;;;47.25;20.50;;;;;7.41;68.20;103020.66;5093705;27;45489;-76
2022/01/30 05:02:09;;;;;;;;;42.75;24.50;;;;;7.42;67.91;103038.25;5077756;27;45526;-76
2022/01/30 05:09:32;;;;;;;;;9.50;5.25;;;;;7.43;68.63;103051.44;5093126;27;45355;-76
2022/01/30 05:11:57;;;;;;;;;4.50;4.50;;;;;7.41;68.35;103061.09;5076242;27;45488;-76
2022/01/30 05:14:26;;;;;;;;;2.00;2.00;;;;;7.24;69.09;103034.47;5073972;27;45502;-76
2022/01/30 05:16:52;;;;;;;;;8.00;3.00;;;;;7.20;68.29;103034.38;5092138;27;48589;-76
2022/01/30 05:19:17;;;;;;;;;7.00;6.75;;;;;7.32;68.33;103063.53;5076795;27;45506;-76
2022/01/30 05:21:43;;;;;;;;;12.00;5.25;;;;;7.33;69.01;103069.72;5076675;27;45380;-76
2022/01/30 05:24:09;;;;;;;;;6.75;4.00;;;;;7.02;68.91;103012.13;5075201;28;45373;-76
2022/01/30 05:26:43;;;;;;;;;11.75;4.50;;;;;7.20;69.03;103058.97;5085524;27;45462;-76
2022/01/30 05:29:09;;;;;;;;;8.75;4.75;;;;;7.28;67.96;103069.63;5096963;27;45521;-76
2022/01/30 05:31:34;;;;;;;;;16.00;12.50;;;;;7.20;69.01;103053.69;5097441;27;45645;-76
2022/01/30 05:34:00;;;;;;;;;13.50;11.00;;;;;7.18;68.82;103055.44;5098874;27;45377;-76
2022/01/30 05:36:26;;;;;;;;;4.75;2.25;;;;;7.16;69.11;103054.50;5096620;27;46135;-76
2022/01/30 05:38:52;;;;;;;;;6.50;4.00;;;;;7.25;68.88;103065.19;5096435;27;47731;-75
2022/01/30 05:41:18;;;;;;;;;8.00;3.00;;;;;6.94;68.95;103020.75;5096763;27;45552;-76
2022/01/30 05:43:46;;;;;;;;;4.00;3.00;;;;;7.10;68.98;103058.78;5096919;27;45350;-76
2022/01/30 05:46:17;;;;;;;;;4.50;3.00;;;;;7.10;69.50;103056.16;5098532;27;45520;-76
2022/01/30 05:48:42;;;;;;;;;6.50;2.50;;;;;7.06;69.12;103047.34;5097561;27;45434;-76
2022/01/30 05:51:08;;;;;;;;;4.00;2.00;;;;;7.08;68.90;103049.97;5095090;27;45300;-76
2022/01/30 05:53:33;;;;;;;;;7.50;3.25;;;;;7.13;69.41;103062.38;5095917;27;45318;-75
2022/01/30 05:55:59;;;;;;;;;4.00;2.50;;;;;7.10;69.29;103059.69;5096259;27;46264;-76
2022/01/30 05:58:24;;;;;;;;;6.50;4.00;;;;;6.98;68.35;103043.66;5097895;27;45358;-76
2022/01/30 06:00:50;;;;;;;;;7.00;7.00;;;;;7.08;69.59;103076.31;5078629;27;45305;-76
2022/01/30 06:03:15;;;;;;;;;11.00;8.75;;;;;6.88;68.85;103044.34;5096245;27;45458;-76
2022/01/30 06:05:41;;;;;;;;;11.75;9.00;;;;;6.90;69.21;103053.19;5096159;27;45977;-76
2022/01/30 06:08:38;;;;;;;;;8.25;7.50;;;;;6.99;69.34;103077.03;5078880;27;45469;-76
2022/01/30 06:11:01;;;;;;;;;10.00;6.00;;;;;6.87;69.23;103061.00;5080107;27;45483;-76
2022/01/30 06:13:26;;;;;;;;;8.00;5.00;;;;;6.87;69.58;103069.78;5079141;27;45387;-76
2022/01/30 06:15:51;;;;;;;;;8.00;6.00;;;;;6.61;69.12;103032.47;5096472;27;45451;-76
2022/01/30 06:18:17;;;;;;;;;6.00;4.00;;;;;6.79;69.48;103074.94;5078181;27;45456;-76
2022/01/30 06:20:42;;;;;;;;;6.25;3.00;;;;;6.94;69.30;103098.03;5095242;27;45966;-76
2022/01/30 06:23:07;;;;;;;;;6.50;6.00;;;;;6.76;69.58;103077.47;5095907;27;45485;-76
2022/01/30 06:25:33;;;;;;;;;10.25;4.00;;;;;6.83;69.66;103100.44;5077839;27;48225;-76
2022/01/30 06:27:58;;;;;;;;;10.75;6.00;;;;;6.79;69.54;103084.56;5097853;27;45334;-76
2022/01/30 06:30:23;;;;;;;;;4.00;1.50;;;;;6.74;69.75;103081.84;5094559;27;45322;-76
2022/01/30 06:32:49;;;;;;;;;7.25;4.50;;;;;6.70;69.42;103082.63;5095964;27;45531;-76
2022/01/30 06:35:15;;;;;;;;;5.75;3.50;;;;;6.78;69.25;103103.84;5095702;27;45970;-76
2022/01/30 06:37:41;;;;;;;;;7.50;3.00;;;;;6.74;70.38;103102.91;5095639;27;45440;-76
2022/01/30 06:40:06;;;;;;;;;8.50;5.75;;;;;6.67;70.12;103089.59;5079152;27;45360;-76
2022/01/30 06:42:33;;;;;;;;;8.75;4.50;;;;;6.43;69.77;103063.69;5095426;27;45396;-76
2022/01/30 06:44:58;;;;;;;;;6.50;3.75;;;;;6.49;69.83;103085.72;5095458;27;45374;-76
2022/01/30 06:47:24;;;;;;;;;6.00;4.75;;;;;6.73;69.01;103132.69;5095871;27;45445;-76
2022/01/30 06:49:50;;;;;;;;;14.50;3.50;;;;;6.72;69.50;103125.66;5096054;27;45605;-76
2022/01/30 06:52:16;;;;;;;;;6.75;3.25;;;;;6.62;69.74;103121.09;5097347;27;45703;-76
2022/01/30 06:54:42;;;;;;;;;13.75;5.50;;;;;6.57;69.39;103115.72;5077821;27;47307;-76
2022/01/30 06:57:07;;;;;;;;;3.00;3.00;;;;;6.38;69.64;103092.50;5077037;27;45356;-76
2022/01/30 06:59:33;;;;;;;;;8.75;5.25;;;;;6.58;70.26;103125.38;5095430;27;45567;-76
2022/01/30 07:01:58;;;;;;;;;4.00;3.00;;;;;6.44;70.35;103110.16;5095829;27;45433;-76
2022/01/30 07:04:24;;;;;;;;;10.75;4.00;;;;;6.62;69.22;103136.88;5078351;27;47121;-75
2022/01/30 07:06:49;;;;;;;;;15.75;6.75;;;;;6.50;70.03;103116.47;5095596;27;45370;-75
2022/01/30 07:09:15;;;;;;;;;30.75;14.50;;;;;6.56;69.31;103135.00;5093884;27;45339;-76
2022/01/30 07:11:40;;;;;;;;;19.00;12.00;;;;;6.47;69.36;103124.28;5094779;27;45367;-75
2022/01/30 07:14:05;;;;;;;;;13.00;9.00;;;;;6.49;69.78;103134.84;5077247;27;48190;-76
2022/01/30 07:16:31;;;;;;;;;10.50;6.75;;;;;6.39;70.09;103115.34;5095861;27;45464;-75
2022/01/30 07:18:57;;;;;;;;;13.75;7.75;;;;;6.42;69.69;103128.56;5096696;27;45361;-76
2022/01/30 07:21:22;;;;;;;;;15.00;9.25;;;;;6.48;70.63;103151.47;5094869;27;45476;-76
2022/01/30 07:23:48;;;;;;;;;16.75;6.50;;;;;6.45;69.72;103146.16;5095353;27;45292;-76
2022/01/30 07:26:13;;;;;;;;;12.75;9.00;;;;;6.26;69.85;103129.97;5095165;27;45397;-76
2022/01/30 07:28:38;;;;;;;;;14.25;7.00;;;;;6.41;70.14;103144.28;5095369;27;45522;-76
2022/01/30 07:31:04;;;;;;;;;19.00;9.00;;;;;6.18;69.49;103107.91;5097046;27;45395;-76
2022/01/30 07:33:29;;;;;;;;;11.25;7.25;;;;;6.30;70.26;103134.44;5094842;27;46269;-76
2022/01/30 07:35:56;;;;;;;;;11.00;10.50;;;;;6.37;70.50;103145.97;5094922;27;45437;-76
2022/01/30 07:38:22;;;;;;;;;14.00;8.75;;;;;6.16;70.18;103120.09;5077804;27;45514;-76
2022/01/30 07:40:49;;;;;;;;;11.75;7.25;;;;;6.33;70.41;103152.03;5087865;27;45459;-76
2022/01/30 07:43:14;;;;;;;;;14.75;12.00;;;;;6.32;70.52;103151.16;5096467;27;47144;-76
2022/01/30 07:45:40;;;;;;;;;10.25;7.75;;;;;5.81;70.79;103075.47;5094236;27;45499;-76
2022/01/30 07:48:05;;;;;;;;;9.50;8.50;;;;;6.12;70.13;103131.44;5092656;27;45394;-75
2022/01/30 07:50:30;;;;;;;;;12.50;11.75;;;;;6.01;69.78;103115.41;5094123;27;45395;-76
2022/01/30 07:52:56;;;;;;;;;17.25;12.00;;;;;5.89;70.17;103097.56;5076274;27;47037;-76
2022/01/30 07:55:21;;;;;;;;;16.25;13.50;;;;;6.05;70.27;103124.22;5096098;27;45656;-75
2022/01/30 07:57:47;;;;;;;;;18.50;12.25;;;;;6.04;70.02;103132.97;5095689;27;45397;-75
2022/01/30 08:00:13;;;;;;;;;20.00;13.00;;;;;6.11;70.62;103153.28;5094612;27;45525;-75
2022/01/30 08:02:39;;;;;;;;;14.75;13.25;;;;;6.08;70.64;103156.72;5094372;27;46110;-75
2022/01/30 08:05:05;;;;;;;;;17.25;12.25;;;;;6.24;70.17;103188.66;5094108;27;45425;-75
2022/01/30 08:07:31;;;;;;;;;22.00;12.00;;;;;6.14;70.34;103163.88;5095596;27;45289;-75
2022/01/30 08:09:56;;;;;;;;;18.50;9.50;;;;;6.09;71.06;103153.28;5096088;27;45360;-75
2022/01/30 08:12:22;;;;;;;;;14.00;12.00;;;;;6.03;71.08;103150.50;5094536;27;45500;-75
2022/01/30 08:14:48;;;;;;;;;11.75;11.25;;;;;6.16;71.37;103174.44;5094260;27;45464;-75
2022/01/30 08:17:20;;;;;;;;;15.00;12.75;;;;;6.11;71.05;103171.69;5094596;27;45378;-75
2022/01/30 08:19:46;;;;;;;;;20.75;14.75;;;;;6.19;70.90;103185.91;5075690;27;45334;-75
2022/01/30 08:22:12;;;;;;;;;16.25;13.50;;;;;6.19;70.52;103191.16;5078127;27;46939;-76
2022/01/30 08:24:38;;;;;;;;;19.50;16.25;;;;;6.05;70.63;103180.31;5094101;27;45364;-75
2022/01/30 08:27:04;;;;;;;;;16.75;13.00;;;;;6.19;71.41;103199.06;5092617;27;45475;-75
2022/01/30 08:29:30;;;;;;;;;18.50;12.50;;;;;6.22;70.88;103198.25;5094041;27;45460;-75
2022/01/30 08:31:56;;;;;;;;;17.00;11.75;;;;;6.19;70.88;103196.44;5094404;27;45495;-76
2022/01/30 08:34:22;;;;;;;;;13.75;10.50;;;;;6.22;71.53;103190.34;5095241;27;45453;-75
2022/01/30 08:36:47;;;;;;;;;20.75;13.50;;;;;6.06;71.48;103163.72;5076227;27;45347;-75
2022/01/30 08:39:12;;;;;;;;;18.00;16.25;;;;;6.14;70.75;103177.03;5092367;27;45488;-75
2022/01/30 08:41:38;;;;;;;;;16.50;12.75;;;;;6.17;70.84;103173.56;5104767;27;46601;-75
2022/01/30 08:44:03;;;;;;;;;19.00;15.75;;;;;6.35;71.04;103209.09;5093722;27;45393;-75
2022/01/30 08:46:29;;;;;;;;;18.00;14.25;;;;;5.89;70.47;103134.38;5094523;27;45407;-76
2022/01/30 08:48:54;;;;;;;;;17.50;11.50;;;;;6.36;71.38;103205.59;5094785;27;47799;-75
2022/01/30 08:51:21;;;;;;;;;14.00;10.75;;;;;6.23;70.66;103164.06;5093471;27;45441;-74
2022/01/30 08:53:47;;;;;;;;;20.00;13.75;;;;;6.46;70.70;103192.66;5074792;27;45443;-75
2022/01/30 08:56:12;;;;;;;;;19.50;13.25;;;;;6.42;71.19;103169.78;5092372;27;45472;-75
2022/01/30 08:58:38;;;;;;;;;16.50;13.00;;;;;6.79;70.07;103214.44;5093215;27;45373;-74
2022/01/30 09:01:04;;;;;;;;;15.25;9.50;;;;;6.94;70.17;103207.69;5077081;27;46926;-74
2022/01/30 09:03:29;;;;;;;;;22.00;14.50;;;;;6.95;69.51;103188.41;5072486;28;45357;-74
2022/01/30 09:05:54;;;;;;;;;15.50;12.50;;;;;7.18;70.02;103212.56;5067130;27;45768;-74
2022/01/30 09:08:20;;;;;;;;;22.00;18.25;;;;;7.24;68.83;103208.28;5092356;27;45446;-74
2022/01/30 09:10:46;;;;;;;;;19.75;15.00;;;;;7.20;69.10;103192.41;5092547;27;47416;-74
2022/01/30 09:13:11;;;;;;;;;46.50;35.75;;;;;7.39;69.68;103217.34;5094724;27;45373;-74
2022/01/30 09:15:42;;;;;;;;;28.00;22.50;;;;;7.55;69.52;103215.88;5092856;27;45473;-74
2022/01/30 09:18:10;;;;;;;;;16.00;13.75;;;;;7.70;67.66;103217.00;5093548;27;45297;-74
2022/01/30 09:20:40;;;;;;;;;16.75;13.25;;;;;7.59;67.68;103171.16;5093245;27;46020;-74
2022/01/30 09:23:06;;;;;;;;;50.75;37.75;;;;;8.02;67.98;103211.38;5093264;27;45767;-73
2022/01/30 09:25:32;;;;;;;;;18.00;15.25;;;;;8.20;67.26;103202.88;5093831;27;45619;-73
2022/01/30 09:27:57;;;;;;;;;21.00;19.25;;;;;7.95;66.96;103138.34;5094453;27;45604;-75
2022/01/30 09:30:23;;;;;;;;;14.75;12.25;;;;;8.55;66.84;103213.09;5092959;27;45342;-73
2022/01/30 09:32:49;;;;;;;;;17.00;9.75;;;;;8.62;65.92;103185.91;5092769;27;45319;-74
2022/01/30 09:35:14;;;;;;;;;16.25;10.25;;;;;9.00;65.76;103211.88;5093296;27;45532;-74
2022/01/30 09:37:40;;;;;;;;;18.75;9.50;;;;;9.09;65.89;103202.34;5093293;27;45390;-77
2022/01/30 09:40:07;;;;;;;;;8.00;5.25;;;;;9.19;65.14;103208.59;5095139;27;46057;-74
2022/01/30 09:42:33;;;;;;;;;14.50;6.00;;;;;9.32;64.47;103215.78;5093041;27;45352;-74
2022/01/30 09:45:03;;;;;;;;;20.75;10.00;;;;;9.20;64.20;103164.56;5091034;27;45592;-74
2022/01/30 09:47:30;;;;;;;;;14.50;8.00;;;;;9.62;64.25;103202.84;5092773;27;45478;-74
2022/01/30 09:49:58;;;;;;;;;10.50;8.50;;;;;9.82;64.20;103200.38;5093101;27;45331;-74
2022/01/30 09:52:24;;;;;;;;;11.25;9.25;;;;;10.08;64.15;103200.56;5094279;27;45385;-74
2022/01/30 09:54:49;;;;;;;;;6.25;5.25;;;;;10.33;64.09;103217.53;5092696;27;45449;-74
2022/01/30 09:57:15;;;;;;;;;11.75;5.75;;;;;10.40;62.83;103192.88;5104095;27;45491;-75
2022/01/30 09:59:41;;;;;;;;;13.25;7.75;;;;;10.51;62.74;103185.88;5092741;27;46142;-74
2022/01/30 10:02:08;;;;;;;;;13.50;4.50;;;;;10.79;62.76;103218.66;5092876;27;45477;-75
2022/01/30 10:04:35;;;;;;;;;7.00;5.00;;;;;10.78;61.43;103201.00;5074594;27;45430;-75
2022/01/30 10:07:12;;;;;;;;;8.25;5.25;;;;;11.00;61.82;103217.88;5091832;27;45729;-75
2022/01/30 10:09:43;;;;;;;;;13.00;7.75;;;;;10.90;61.65;103179.84;5092748;27;46534;-74
2022/01/30 10:12:16;;;;;;;;;6.75;5.75;;;;;11.09;61.17;103194.06;5096283;27;45426;-76
2022/01/30 10:15:00;;;;;;;;;13.50;8.00;;;;;11.28;61.43;103218.81;5095992;27;45372;-75
2022/01/30 10:17:46;;;;;;;;;7.25;7.00;;;;;11.11;60.74;103181.66;5096403;27;45414;-75
2022/01/30 10:20:24;;;;;;;;;10.50;7.25;;;;;11.46;60.73;103217.97;5086468;27;46839;-74
2022/01/30 10:23:01;;;;;;;;;12.25;8.75;;;;;11.55;60.30;103220.63;5091968;27;45585;-74
2022/01/30 10:25:27;;;;;;;;;10.00;7.00;;;;;11.66;60.62;103228.63;5094250;27;45313;-75
2022/01/30 10:28:08;;;;;;;;;7.25;6.00;;;;;11.76;59.92;103216.22;5091989;27;45470;-75
2022/01/30 10:30:44;;;;;;;;;9.25;5.00;;;;;11.89;60.24;103217.16;5092571;27;46018;-75
2022/01/30 10:33:12;;;;;;;;;11.50;7.00;;;;;12.02;59.91;103216.25;5078600;27;45565;-75
2022/01/30 10:35:55;;;;;;;;;11.75;6.00;;;;;12.11;58.98;103215.38;5094422;27;45600;-75
2022/01/30 10:38:21;;;;;;;;;6.00;5.00;;;;;12.19;58.95;103214.47;5077579;27;45474;-75
2022/01/30 10:41:14;;;;;;;;;7.50;4.50;;;;;12.07;59.25;103184.41;5095438;27;45249;-76
2022/01/30 10:44:01;;;;;;;;;13.00;7.00;;;;;12.39;58.69;103206.47;5093936;27;45448;-75
2022/01/30 10:46:32;;;;;;;;;13.00;4.00;;;;;12.41;58.16;103191.44;5093853;27;45428;-75
2022/01/30 10:49:03;;;;;;;;;8.00;4.00;;;;;12.56;58.29;103209.09;5078566;27;45525;-76
2022/01/30 10:51:30;;;;;;;;;5.00;4.00;;;;;12.55;57.59;103187.81;5076311;27;47377;-76
2022/01/30 10:53:58;;;;;;;;;6.00;3.00;;;;;12.68;56.84;103190.44;5095407;27;45418;-76
2022/01/30 10:56:27;;;;;;;;;7.00;3.00;;;;;12.73;56.97;103180.69;5095649;27;45521;-76
2022/01/30 10:59:11;;;;;;;;;5.00;2.00;;;;;12.91;57.38;103205.38;5093993;27;45706;-76
2022/01/30 11:01:39;;;;;;;;;4.75;3.25;;;;;13.00;56.85;103205.38;5076977;27;46889;-77
2022/01/30 11:04:05;;;;;;;;;5.75;3.00;;;;;12.89;55.14;103165.53;5078238;27;45468;-75
2022/01/30 11:06:37;;;;;;;;;5.75;3.00;;;;;13.11;56.05;103203.50;5096466;27;45445;-75
2022/01/30 11:09:10;;;;;;;;;3.00;2.00;;;;;13.13;56.13;103199.06;5087966;27;47731;-76
2022/01/30 11:11:43;;;;;;;;;8.00;4.00;;;;;13.16;53.96;103196.38;5094796;27;45668;-76
2022/01/30 11:19:22;;;;;;;;;6.00;3.50;;;;;13.19;52.68;103180.41;5093393;27;45441;-76
2022/01/30 11:21:55;;;;;;;;;2.25;2.25;;;;;13.16;55.01;103151.19;5077477;27;47476;-75
2022/01/30 11:24:24;;;;;;;;;4.50;3.00;;;;;13.19;53.93;103153.81;5094728;27;45460;-75
2022/01/30 11:26:49;;;;;;;;;8.50;5.00;;;;;13.30;53.59;103160.91;5094607;27;45345;-75
2022/01/30 11:29:16;;;;;;;;;31.75;20.00;;;;;13.31;54.68;103141.38;5094662;27;45550;-75
2022/01/30 11:31:43;;;;;;;;;11.00;5.00;;;;;13.37;54.40;103142.22;5094988;27;46249;-75
2022/01/30 11:34:09;;;;;;;;;7.25;5.00;;;;;13.48;53.70;103143.91;5095890;27;45465;-77
2022/01/30 11:36:39;;;;;;;;;6.00;3.25;;;;;13.42;54.40;103123.56;5076675;27;45493;-77
2022/01/30 11:39:12;;;;;;;;;5.00;4.00;;;;;13.61;54.10;103149.09;5094564;27;45540;-77
2022/01/30 11:41:38;;;;;;;;;6.00;2.00;;;;;13.58;54.50;103135.81;5076842;27;47408;-77
2022/01/30 11:44:19;;;;;;;;;8.25;4.00;;;;;13.73;54.21;103149.91;5094421;27;45502;-77
2022/01/30 11:46:57;;;;;;;;;8.25;5.25;;;;;13.76;53.08;103145.41;5094764;27;45494;-77
2022/01/30 11:49:36;;;;;;;;;8.75;4.00;;;;;13.79;52.10;103141.84;5092632;27;45341;-77
2022/01/30 11:52:03;;;;;;;;;4.00;2.75;;;;;13.81;51.54;103142.72;5094441;27;46186;-77
2022/01/30 11:54:48;;;;;;;;;15.50;8.00;;;;;13.78;50.50;103137.44;5077223;27;45370;-77
2022/01/30 11:57:19;;;;;;;;;11.00;7.00;;;;;13.73;51.64;103136.59;5075360;27;45393;-77
2022/01/30 11:59:46;;;;;;;;;15.00;10.50;;;;;13.31;52.00;103073.09;5094542;27;45572;-78
2022/01/30 12:02:27;;;;;;;;;6.00;4.25;;;;;13.48;50.98;103107.56;5094241;27;46056;-79
2022/01/30 12:05:04;;;;;;;;;10.25;4.25;;;;;13.54;51.79;103134.09;5078858;27;45253;-78
2022/01/30 12:07:41;;;;;;;;;6.50;3.50;;;;;13.14;51.99;103073.22;5095360;27;45425;-79
2022/01/30 12:10:15;;;;;;;;;6.75;4.25;;;;;13.38;51.51;103122.72;5076172;27;45625;-79
2022/01/30 12:12:48;;;;;;;;;3.25;2.75;;;;;13.34;50.63;103120.97;5078559;27;47048;-75
2022/01/30 12:15:39;;;;;;;;;3.50;2.00;;;;;13.30;50.94;103107.72;5076656;27;45464;-77
2022/01/30 12:18:12;;;;;;;;;3.00;3.00;;;;;12.89;49.52;103059.22;5094200;27;45383;-77
2022/01/30 12:20:56;;;;;;;;;13.50;4.50;;;;;12.99;50.67;103102.56;5094391;27;45744;-77
2022/01/30 12:23:26;;;;;;;;;6.00;3.00;;;;;12.86;50.52;103096.47;5077221;27;46539;-76
2022/01/30 12:26:03;;;;;;;;;4.25;3.00;;;;;12.82;51.25;103093.81;5065976;27;45493;-76
2022/01/30 12:29:01;;;;;;;;;5.00;4.50;;;;;12.73;49.88;103077.06;5095008;27;45265;-77